createdAt,value
2019-05-30T00:00:47.489Z,4.00
2019-05-30T00:01:47.499Z,4.00
2019-05-30T00:02:47.518Z,4.00
2019-05-30T00:03:47.520Z,4.00
2019-05-30T00:04:47.541Z,4.00
2019-05-30T00:05:47.563Z,4.00
2019-05-30T00:06:47.622Z,4.00
2019-05-30T00:07:47.580Z,4.00
2019-05-30T00:08:47.597Z,4.00
2019-05-30T00:09:47.717Z,4.00
2019-05-30T00:10:47.622Z,4.00
2019-05-30T00:11:47.638Z,4.00
2019-05-30T00:12:47.646Z,4.00
2019-05-30T00:13:47.667Z,4.00
2019-05-30T00:14:47.677Z,4.00
2019-05-30T00:15:47.698Z,4.00
2019-05-30T00:16:47.712Z,4.00
2019-05-30T00:17:47.723Z,4.00
2019-05-30T00:18:47.737Z,4.00
2019-05-30T00:19:47.768Z,4.00
2019-05-30T00:20:47.790Z,4.00
2019-05-30T00:21:47.786Z,4.00
2019-05-30T00:22:47.799Z,4.00
2019-05-30T00:23:47.815Z,4.00
2019-05-30T00:24:47.848Z,4.00
2019-05-30T00:25:47.837Z,4.00
2019-05-30T00:26:47.868Z,4.00
2019-05-30T00:27:47.869Z,4.00
2019-05-30T00:28:47.913Z,4.00
2019-05-30T00:29:47.892Z,4.00
2019-05-30T00:30:47.908Z,4.00
2019-05-30T00:31:47.932Z,4.00
2019-05-30T00:32:47.940Z,4.00
2019-05-30T00:33:47.951Z,4.00
2019-05-30T00:34:48.038Z,4.00
2019-05-30T00:35:47.985Z,4.00
2019-05-30T00:36:47.990Z,4.00
2019-05-30T00:37:48.012Z,4.00
2019-05-30T00:38:48.027Z,4.00
2019-05-30T00:39:48.040Z,4.00
2019-05-30T00:40:48.052Z,4.00
2019-05-30T00:41:48.063Z,4.00
2019-05-30T00:42:48.078Z,4.00
2019-05-30T00:43:48.098Z,4.00
2019-05-30T00:44:48.111Z,4.00
2019-05-30T00:45:48.172Z,4.00
2019-05-30T00:46:49.038Z,4.00
2019-05-30T00:47:49.105Z,4.00
2019-05-30T00:48:48.173Z,4.00
2019-05-30T00:49:48.243Z,4.00
2019-05-30T00:50:48.193Z,4.00
2019-05-30T00:51:48.210Z,4.00
2019-05-30T00:52:48.221Z,4.00
2019-05-30T00:53:48.236Z,4.00
2019-05-30T00:54:48.257Z,4.00
2019-05-30T00:55:48.278Z,4.00
2019-05-30T00:56:48.279Z,4.00
2019-05-30T00:57:48.296Z,4.00
2019-05-30T00:58:48.312Z,4.00
2019-05-30T00:59:48.338Z,4.00
2019-05-30T01:00:48.340Z,4.00
2019-05-30T01:03:48.687Z,4.00
2019-05-30T01:04:49.373Z,4.00
2019-05-30T01:05:48.409Z,4.00
2019-05-30T01:06:48.473Z,4.00
2019-05-30T01:07:48.448Z,4.00
2019-05-30T01:08:48.447Z,4.00
2019-05-30T01:09:48.467Z,4.00
2019-05-30T01:10:48.484Z,4.00
2019-05-30T01:11:48.527Z,4.00
2019-05-30T01:12:48.513Z,4.00
2019-05-30T01:13:48.518Z,4.00
2019-05-30T01:14:48.533Z,4.00
2019-05-30T01:15:48.549Z,4.00
2019-05-30T01:16:48.564Z,4.00
2019-05-30T01:17:48.577Z,4.00
2019-05-30T01:19:48.650Z,4.00
2019-05-30T01:20:48.654Z,4.00
2019-05-30T01:21:48.668Z,4.00
2019-05-30T01:22:48.672Z,4.00
2019-05-30T01:23:48.676Z,4.00
2019-05-30T01:24:48.673Z,4.00
2019-05-30T01:25:48.690Z,4.00
2019-05-30T01:26:48.701Z,4.00
2019-05-30T01:27:48.736Z,4.00
2019-05-30T01:28:48.732Z,4.00
2019-05-30T01:29:48.753Z,4.00
2019-05-30T01:30:59.628Z,4.00
2019-05-30T01:31:49.632Z,4.00
2019-05-30T01:32:48.789Z,4.00
2019-05-30T01:33:48.803Z,4.00
2019-05-30T01:35:49.078Z,4.00
2019-05-30T01:36:48.846Z,4.00
2019-05-30T01:37:48.868Z,4.00
2019-05-30T01:38:48.872Z,4.00
2019-05-30T01:39:48.888Z,4.00
2019-05-30T01:40:48.944Z,4.00
2019-05-30T01:41:48.951Z,4.00
2019-05-30T01:42:48.963Z,4.00
2019-05-30T01:43:48.949Z,4.00
2019-05-30T01:44:48.959Z,4.00
2019-05-30T01:45:48.978Z,4.00
2019-05-30T01:46:48.993Z,4.00
2019-05-30T01:47:49.007Z,4.00
2019-05-30T01:48:49.019Z,4.00
2019-05-30T01:49:49.030Z,4.00
2019-05-30T01:52:49.143Z,4.00
2019-05-30T01:53:49.112Z,4.00
2019-05-30T01:54:49.115Z,4.00
2019-05-30T01:55:49.117Z,4.00
2019-05-30T01:56:49.139Z,4.00
2019-05-30T01:57:49.251Z,4.00
2019-05-30T01:58:49.157Z,4.00
2019-05-30T01:59:49.192Z,4.00
2019-05-30T02:00:49.737Z,4.00
2019-05-30T02:01:49.217Z,4.00
2019-05-30T02:02:49.233Z,4.00
2019-05-30T02:03:49.735Z,4.00
2019-05-30T02:04:49.498Z,4.00
2019-05-30T02:05:49.275Z,4.00
2019-05-30T02:06:49.280Z,4.00
2019-05-30T02:07:49.317Z,4.00
2019-05-30T02:08:49.304Z,4.00
2019-05-30T02:09:49.322Z,4.00
2019-05-30T02:10:49.339Z,4.00
2019-05-30T02:11:49.353Z,4.00
2019-05-30T02:12:49.377Z,4.00
2019-05-30T02:13:49.411Z,4.00
2019-05-30T02:14:49.419Z,4.00
2019-05-30T02:15:49.408Z,4.00
2019-05-30T02:16:49.437Z,4.00
2019-05-30T02:17:49.434Z,4.00
2019-05-30T02:18:49.450Z,4.00
2019-05-30T02:19:49.464Z,4.00
2019-05-30T02:20:49.466Z,4.00
2019-05-30T02:21:49.487Z,4.00
2019-05-30T02:25:50.119Z,4.00
2019-05-30T02:26:49.558Z,4.00
2019-05-30T02:27:49.581Z,4.00
2019-05-30T02:28:49.592Z,4.00
2019-05-30T02:29:49.599Z,4.00
2019-05-30T02:30:50.439Z,4.00
2019-05-30T02:31:49.643Z,4.00
2019-05-30T02:32:49.644Z,4.00
2019-05-30T02:33:49.763Z,4.00
2019-05-30T02:34:49.675Z,4.00
2019-05-30T02:35:49.689Z,4.00
2019-05-30T02:36:49.772Z,4.00
2019-05-30T02:37:49.726Z,4.00
2019-05-30T02:38:49.725Z,4.00
2019-05-30T02:39:49.753Z,4.00
2019-05-30T02:40:49.753Z,4.00
2019-05-30T02:41:49.789Z,4.00
2019-05-30T02:42:49.795Z,4.00
2019-05-30T02:43:49.850Z,4.00
2019-05-30T02:44:49.814Z,4.00
2019-05-30T02:45:49.834Z,0.00
2019-05-30T02:46:49.864Z,4.00
2019-05-30T02:47:49.916Z,4.00
2019-05-30T02:48:59.027Z,4.00
2019-05-30T02:49:49.887Z,4.00
2019-05-30T02:50:49.902Z,4.00
2019-05-30T02:51:49.937Z,8.00
2019-05-30T02:52:50.084Z,4.00
2019-05-30T02:55:50.051Z,4.00
2019-05-30T02:56:50.064Z,4.00
2019-05-30T02:57:50.028Z,8.00
2019-05-30T02:58:50.015Z,8.00
2019-05-30T02:59:50.222Z,8.00
2019-05-30T03:02:01.161Z,4.00
2019-05-30T03:02:50.074Z,8.00
2019-05-30T03:04:50.183Z,12.00
2019-05-30T03:05:50.135Z,8.00
2019-05-30T03:06:50.124Z,12.00
2019-05-30T03:07:50.141Z,12.00
2019-05-30T03:08:50.156Z,12.00
2019-05-30T03:09:50.169Z,16.00
2019-05-30T03:10:50.195Z,16.00
2019-05-30T03:11:50.195Z,16.00
2019-05-30T03:12:50.216Z,16.00
2019-05-30T03:13:50.235Z,20.00
2019-05-30T03:14:50.243Z,20.00
2019-05-30T03:15:50.305Z,20.00
2019-05-30T03:16:50.317Z,24.00
2019-05-30T03:17:50.285Z,20.00
2019-05-30T03:18:50.320Z,24.00
2019-05-30T03:19:50.313Z,24.00
2019-05-30T03:20:50.336Z,28.00
2019-05-30T03:21:50.354Z,28.00
2019-05-30T03:22:50.358Z,28.00
2019-05-30T03:23:50.368Z,32.00
2019-05-30T03:24:50.389Z,36.00
2019-05-30T03:25:50.426Z,36.00
2019-05-30T03:26:50.427Z,40.00
2019-05-30T03:27:50.452Z,44.00
2019-05-30T03:28:53.374Z,48.00
2019-05-30T03:29:50.545Z,52.00
2019-05-30T03:30:51.158Z,56.00
2019-05-30T03:31:51.100Z,60.00
2019-05-30T03:33:50.502Z,72.00
2019-05-30T03:34:50.630Z,76.00
2019-05-30T03:35:50.537Z,84.00
2019-05-30T03:36:50.552Z,88.00
2019-05-30T03:37:50.555Z,92.00
2019-05-30T03:38:50.572Z,96.00
2019-05-30T03:39:50.607Z,100.00
2019-05-30T03:40:50.603Z,108.00
2019-05-30T03:41:50.629Z,108.00
2019-05-30T03:42:50.641Z,116.00
2019-05-30T03:43:50.644Z,120.00
2019-05-30T03:44:50.678Z,124.00
2019-05-30T03:45:50.682Z,132.00
2019-05-30T03:46:50.710Z,132.00
2019-05-30T03:47:50.715Z,136.00
2019-05-30T03:48:50.716Z,140.00
2019-05-30T03:49:50.789Z,144.00
2019-05-30T03:50:50.851Z,152.00
2019-05-30T03:51:50.781Z,156.00
2019-05-30T03:52:51.261Z,164.00
2019-05-30T03:53:50.785Z,168.00
2019-05-30T03:54:50.837Z,172.00
2019-05-30T03:55:50.813Z,184.00
2019-05-30T03:56:50.827Z,192.00
2019-05-30T03:57:50.874Z,204.00
2019-05-30T03:58:50.912Z,212.00
2019-05-30T03:59:50.949Z,216.00
2019-05-30T04:00:51.422Z,224.00
2019-05-30T04:01:51.139Z,232.00
2019-05-30T04:02:57.273Z,236.00
2019-05-30T04:03:50.928Z,240.00
2019-05-30T04:04:50.981Z,244.00
2019-05-30T04:05:50.969Z,252.00
2019-05-30T04:06:50.985Z,260.00
2019-05-30T04:07:51.349Z,264.00
2019-05-30T04:08:51.006Z,268.00
2019-05-30T04:09:51.013Z,272.00
2019-05-30T04:10:51.398Z,268.00
2019-05-30T04:11:51.047Z,268.00
2019-05-30T04:12:51.057Z,272.00
2019-05-30T04:13:51.088Z,276.00
2019-05-30T04:14:51.087Z,280.00
2019-05-30T04:15:51.111Z,292.00
2019-05-30T04:16:51.147Z,300.00
2019-05-30T04:17:51.346Z,312.00
2019-05-30T04:18:51.150Z,320.00
2019-05-30T04:19:51.209Z,328.00
2019-05-30T04:20:51.178Z,336.00
2019-05-30T04:21:51.197Z,344.00
2019-05-30T04:22:51.204Z,352.00
2019-05-30T04:23:51.213Z,360.00
2019-05-30T04:24:51.250Z,372.00
2019-05-30T04:25:51.245Z,384.00
2019-05-30T04:26:51.261Z,388.00
2019-05-30T04:27:51.323Z,400.00
2019-05-30T04:28:51.285Z,408.00
2019-05-30T04:29:51.316Z,416.00
2019-05-30T04:30:51.310Z,424.00
2019-05-30T04:31:51.393Z,428.00
2019-05-30T04:32:51.375Z,428.00
2019-05-30T04:33:51.564Z,424.00
2019-05-30T04:34:51.373Z,420.00
2019-05-30T04:36:53.418Z,408.00
2019-05-30T04:37:52.227Z,404.00
2019-05-30T04:38:51.428Z,408.00
2019-05-30T04:39:51.443Z,408.00
2019-05-30T04:40:51.455Z,416.00
2019-05-30T04:41:51.483Z,420.00
2019-05-30T04:42:51.482Z,428.00
2019-05-30T04:43:51.498Z,436.00
2019-05-30T04:44:51.511Z,448.00
2019-05-30T04:45:51.534Z,452.00
2019-05-30T04:46:51.543Z,460.00
2019-05-30T04:47:51.560Z,476.00
2019-05-30T04:48:51.576Z,484.00
2019-05-30T04:49:51.589Z,500.00
2019-05-30T04:50:51.706Z,516.00
2019-05-30T04:51:51.709Z,528.00
2019-05-30T04:52:51.783Z,536.00
2019-05-30T04:54:51.828Z,552.00
2019-05-30T04:55:51.672Z,556.00
2019-05-30T04:56:51.700Z,564.00
2019-05-30T04:57:51.711Z,584.00
2019-05-30T04:58:51.731Z,608.00
2019-05-30T04:59:51.741Z,628.00
2019-05-30T05:00:51.745Z,660.00
2019-05-30T05:01:51.863Z,684.00
2019-05-30T05:02:51.830Z,700.00
2019-05-30T05:03:51.786Z,716.00
2019-05-30T05:04:51.811Z,712.00
2019-05-30T05:05:51.817Z,708.00
2019-05-30T05:06:51.824Z,708.00
2019-05-30T05:07:51.905Z,700.00
2019-05-30T05:08:51.887Z,692.00
2019-05-30T05:09:51.875Z,684.00
2019-05-30T05:10:51.891Z,684.00
2019-05-30T05:11:51.902Z,692.00
2019-05-30T05:12:51.912Z,712.00
2019-05-30T05:13:51.938Z,732.00
2019-05-30T05:14:51.944Z,752.00
2019-05-30T05:15:51.956Z,772.00
2019-05-30T05:16:51.980Z,784.00
2019-05-30T05:17:51.988Z,788.00
2019-05-30T05:18:51.999Z,796.00
2019-05-30T05:19:52.031Z,796.00
2019-05-30T05:20:52.032Z,792.00
2019-05-30T05:21:52.039Z,792.00
2019-05-30T05:22:52.064Z,780.00
2019-05-30T05:23:52.145Z,776.00
2019-05-30T05:24:52.083Z,776.00
2019-05-30T05:26:00.906Z,776.00
2019-05-30T05:26:52.126Z,796.00
2019-05-30T05:27:52.189Z,800.00
2019-05-30T05:28:52.245Z,824.00
2019-05-30T05:29:52.163Z,836.00
2019-05-30T05:30:52.178Z,852.00
2019-05-30T05:31:52.199Z,864.00
2019-05-30T05:32:52.201Z,864.00
2019-05-30T05:33:56.893Z,856.00
2019-05-30T05:34:52.327Z,852.00
2019-05-30T05:35:52.390Z,844.00
2019-05-30T05:36:52.377Z,836.00
2019-05-30T05:37:52.290Z,832.00
2019-05-30T05:38:52.291Z,824.00
2019-05-30T05:41:52.373Z,796.00
2019-05-30T05:42:52.352Z,804.00
2019-05-30T05:43:52.421Z,824.00
2019-05-30T05:44:52.421Z,844.00
2019-05-30T05:45:52.392Z,876.00
2019-05-30T05:46:52.410Z,900.00
2019-05-30T05:47:52.446Z,928.00
2019-05-30T05:48:52.433Z,948.00
2019-05-30T05:49:52.444Z,964.00
2019-05-30T05:50:52.473Z,976.00
2019-05-30T05:51:52.475Z,988.00
2019-05-30T05:52:52.503Z,1008.00
2019-05-30T05:54:52.524Z,1060.00
2019-05-30T05:55:52.530Z,1072.00
2019-05-30T05:56:52.546Z,1076.00
2019-05-30T05:57:52.563Z,1072.00
2019-05-30T05:58:52.577Z,1056.00
2019-05-30T05:59:52.591Z,1036.00
2019-05-30T06:00:52.651Z,1024.00
2019-05-30T06:01:52.647Z,1020.00
2019-05-30T06:02:52.636Z,1016.00
2019-05-30T06:03:52.667Z,1024.00
2019-05-30T06:04:52.664Z,1032.00
2019-05-30T06:05:53.646Z,1020.00
2019-05-30T06:08:52.929Z,924.00
2019-05-30T06:09:52.888Z,896.00
2019-05-30T06:10:52.758Z,900.00
2019-05-30T06:11:52.770Z,920.00
2019-05-30T06:13:52.792Z,916.00
2019-05-30T06:14:52.847Z,920.00
2019-05-30T06:15:52.821Z,920.00
2019-05-30T06:16:55.766Z,944.00
2019-05-30T06:17:52.887Z,992.00
2019-05-30T06:18:52.887Z,1024.00
2019-05-30T06:19:52.883Z,1048.00
2019-05-30T06:20:52.894Z,1096.00
2019-05-30T06:21:54.308Z,1152.00
2019-05-30T06:22:52.925Z,1176.00
2019-05-30T06:23:52.939Z,1176.00
2019-05-30T06:24:52.953Z,1172.00
2019-05-30T06:25:52.975Z,1160.00
2019-05-30T06:26:52.994Z,1164.00
2019-05-30T06:27:52.997Z,1152.00
2019-05-30T06:28:53.014Z,1128.00
2019-05-30T06:29:53.074Z,1092.00
2019-05-30T06:30:53.044Z,1092.00
2019-05-30T06:31:53.354Z,1140.00
2019-05-30T06:32:53.103Z,1196.00
2019-05-30T06:33:53.159Z,1208.00
2019-05-30T06:34:53.211Z,1180.00
2019-05-30T06:35:53.112Z,1180.00
2019-05-30T06:36:53.125Z,1164.00
2019-05-30T06:37:53.149Z,1136.00
2019-05-30T06:38:53.613Z,1096.00
2019-05-30T06:40:53.239Z,1120.00
2019-05-30T06:41:53.217Z,1160.00
2019-05-30T06:42:54.491Z,1168.00
2019-05-30T06:43:54.107Z,1148.00
2019-05-30T06:44:53.955Z,1144.00
2019-05-30T06:45:53.998Z,1132.00
2019-05-30T06:46:53.274Z,1124.00
2019-05-30T06:47:53.290Z,1120.00
2019-05-30T06:48:53.311Z,1144.00
2019-05-30T06:49:53.315Z,1212.00
2019-05-30T06:50:53.337Z,1268.00
2019-05-30T06:51:53.353Z,1332.00
2019-05-30T06:52:53.360Z,1424.00
2019-05-30T06:53:53.395Z,1496.00
2019-05-30T06:54:53.397Z,1552.00
2019-05-30T06:55:53.405Z,1504.00
2019-05-30T06:56:53.423Z,1456.00
2019-05-30T06:57:54.017Z,1476.00
2019-05-30T06:58:53.453Z,1556.00
2019-05-30T06:59:53.461Z,1544.00
2019-05-30T07:00:53.487Z,1544.00
2019-05-30T07:01:53.495Z,1480.00
2019-05-30T07:02:53.610Z,1456.00
2019-05-30T07:03:53.709Z,1496.00
2019-05-30T07:04:54.421Z,1508.00
2019-05-30T07:05:54.158Z,1552.00
2019-05-30T07:06:53.753Z,1752.00
2019-05-30T07:07:53.855Z,1864.00
2019-05-30T07:08:53.593Z,1888.00
2019-05-30T07:09:53.621Z,1992.00
2019-05-30T07:11:53.646Z,2184.00
2019-05-30T07:12:53.669Z,2132.00
2019-05-30T07:14:53.874Z,2012.00
2019-05-30T07:15:54.002Z,2032.00
2019-05-30T07:16:54.846Z,1848.00
2019-05-30T07:17:54.162Z,1788.00
2019-05-30T07:18:54.118Z,1784.00
2019-05-30T07:19:53.762Z,1864.00
2019-05-30T07:20:53.776Z,1880.00
2019-05-30T07:21:53.811Z,1948.00
2019-05-30T07:22:53.803Z,1992.00
2019-05-30T07:23:53.884Z,1968.00
2019-05-30T07:24:53.837Z,1920.00
2019-05-30T07:25:53.850Z,1940.00
2019-05-30T07:26:53.909Z,2044.00
2019-05-30T07:27:53.931Z,2016.00
2019-05-30T07:28:53.978Z,1856.00
2019-05-30T07:30:54.131Z,1632.00
2019-05-30T07:31:53.993Z,1640.00
2019-05-30T07:32:53.979Z,1680.00
2019-05-30T07:33:53.965Z,1700.00
2019-05-30T07:35:06.184Z,1736.00
2019-05-30T07:35:54.041Z,1836.00
2019-05-30T07:36:54.111Z,1896.00
2019-05-30T07:37:54.065Z,1968.00
2019-05-30T07:38:54.043Z,2020.00
2019-05-30T07:39:54.395Z,1968.00
2019-05-30T07:40:54.076Z,1836.00
2019-05-30T07:42:05.754Z,1844.00
2019-05-30T07:43:55.383Z,2304.00
2019-05-30T07:44:54.627Z,2500.00
2019-05-30T07:45:58.163Z,2700.00
2019-05-30T07:46:54.237Z,2792.00
2019-05-30T07:47:54.177Z,2676.00
2019-05-30T07:48:54.212Z,2592.00
2019-05-30T07:49:54.609Z,2420.00
2019-05-30T07:50:54.215Z,2272.00
2019-05-30T07:51:54.235Z,2204.00
2019-05-30T07:52:54.258Z,2208.00
2019-05-30T07:53:54.262Z,2212.00
2019-05-30T07:54:54.332Z,2228.00
2019-05-30T07:55:54.289Z,2252.00
2019-05-30T07:56:54.312Z,2360.00
2019-05-30T07:57:54.318Z,2544.00
2019-05-30T07:58:54.338Z,2624.00
2019-05-30T07:59:54.362Z,2524.00
2019-05-30T08:00:54.369Z,2608.00
2019-05-30T08:01:54.386Z,2840.00
2019-05-30T08:02:54.397Z,3036.00
2019-05-30T08:03:54.552Z,3096.00
2019-05-30T08:04:54.491Z,2744.00
2019-05-30T08:05:54.450Z,2444.00
2019-05-30T08:06:54.460Z,2304.00
2019-05-30T08:07:54.535Z,2280.00
2019-05-30T08:08:54.499Z,2288.00
2019-05-30T08:09:54.611Z,2208.00
2019-05-30T08:11:08.433Z,2160.00
2019-05-30T08:11:54.578Z,2100.00
2019-05-30T08:12:54.566Z,2004.00
2019-05-30T08:13:54.560Z,1952.00
2019-05-30T08:14:54.774Z,2104.00
2019-05-30T08:15:55.505Z,2412.00
2019-05-30T08:16:54.670Z,2652.00
2019-05-30T08:17:55.682Z,2924.00
2019-05-30T08:18:54.631Z,3188.00
2019-05-30T08:19:54.669Z,3232.00
2019-05-30T08:20:55.154Z,3248.00
2019-05-30T08:21:56.268Z,3644.00
2019-05-30T08:22:57.284Z,4480.00
2019-05-30T08:23:54.711Z,4992.00
2019-05-30T08:24:55.218Z,4964.00
2019-05-30T08:25:54.735Z,4900.00
2019-05-30T08:26:54.781Z,4312.00
2019-05-30T08:27:54.799Z,4116.00
2019-05-30T08:28:54.789Z,3932.00
2019-05-30T08:29:54.801Z,3328.00
2019-05-30T08:30:56.967Z,2788.00
2019-05-30T08:31:54.832Z,2448.00
2019-05-30T08:32:54.845Z,2400.00
2019-05-30T08:33:54.876Z,2496.00
2019-05-30T08:34:54.874Z,2648.00
2019-05-30T08:35:54.892Z,2848.00
2019-05-30T08:36:54.905Z,2880.00
2019-05-30T08:37:54.924Z,3016.00
2019-05-30T08:38:55.031Z,2952.00
2019-05-30T08:39:54.950Z,2724.00
2019-05-30T08:40:54.975Z,2676.00
2019-05-30T08:41:54.976Z,2808.00
2019-05-30T08:42:55.032Z,3168.00
2019-05-30T08:43:55.576Z,3168.00
2019-05-30T08:44:55.632Z,3056.00
2019-05-30T08:45:55.783Z,3080.00
2019-05-30T08:46:55.089Z,3032.00
2019-05-30T08:47:55.098Z,2980.00
2019-05-30T08:48:55.084Z,2964.00
2019-05-30T08:50:55.624Z,2744.00
2019-05-30T08:52:55.198Z,2412.00
2019-05-30T08:53:55.197Z,2340.00
2019-05-30T08:54:55.212Z,2264.00
2019-05-30T08:55:57.171Z,2236.00
2019-05-30T08:56:55.201Z,2316.00
2019-05-30T08:57:55.212Z,2328.00
2019-05-30T08:58:55.237Z,2360.00
2019-05-30T08:59:55.262Z,2480.00
2019-05-30T09:00:55.404Z,2624.00
2019-05-30T09:01:55.278Z,2692.00
2019-05-30T09:02:55.302Z,2848.00
2019-05-30T09:03:55.310Z,2628.00
2019-05-30T09:04:55.323Z,2444.00
2019-05-30T09:06:03.468Z,2336.00
2019-05-30T09:06:55.360Z,2428.00
2019-05-30T09:07:55.369Z,2460.00
2019-05-30T09:08:55.385Z,2468.00
2019-05-30T09:09:55.391Z,2344.00
2019-05-30T09:10:55.418Z,2276.00
2019-05-30T09:11:57.342Z,2368.00
2019-05-30T09:12:55.443Z,2372.00
2019-05-30T09:13:55.459Z,2316.00
2019-05-30T09:15:55.596Z,2340.00
2019-05-30T09:16:56.969Z,2312.00
2019-05-30T09:17:55.563Z,2352.00
2019-05-30T09:18:55.591Z,2572.00
2019-05-30T09:19:55.545Z,3052.00
2019-05-30T09:21:55.774Z,3928.00
2019-05-30T09:22:55.859Z,3592.00
2019-05-30T09:24:00.863Z,3332.00
2019-05-30T09:24:55.633Z,3220.00
2019-05-30T09:25:56.427Z,3212.00
2019-05-30T09:26:55.767Z,3128.00
2019-05-30T09:27:55.668Z,3544.00
2019-05-30T09:28:55.702Z,3892.00
2019-05-30T09:29:55.695Z,4076.00
2019-05-30T09:30:56.036Z,4352.00
2019-05-30T09:31:55.751Z,3944.00
2019-05-30T09:32:55.744Z,3324.00
2019-05-30T09:33:55.751Z,2880.00
2019-05-30T09:34:55.769Z,2612.00
2019-05-30T09:36:11.749Z,2316.00
2019-05-30T09:36:55.795Z,2184.00
2019-05-30T09:37:55.814Z,2156.00
2019-05-30T09:38:55.828Z,1908.00
2019-05-30T09:39:55.852Z,1836.00
2019-05-30T09:40:55.864Z,1728.00
2019-05-30T09:41:55.885Z,1648.00
2019-05-30T09:42:55.895Z,1632.00
2019-05-30T09:43:55.906Z,1744.00
2019-05-30T09:44:56.027Z,1856.00
2019-05-30T09:45:55.934Z,1856.00
2019-05-30T09:46:55.961Z,1640.00
2019-05-30T09:47:55.964Z,1456.00
2019-05-30T09:48:55.977Z,1480.00
2019-05-30T09:49:55.998Z,1784.00
2019-05-30T09:50:56.017Z,2232.00
2019-05-30T09:51:56.053Z,2644.00
2019-05-30T09:52:56.523Z,2600.00
2019-05-30T09:53:56.914Z,2640.00
2019-05-30T09:54:56.523Z,2916.00
2019-05-30T09:55:56.086Z,2980.00
2019-05-30T09:56:57.452Z,3156.00
2019-05-30T09:57:56.115Z,3164.00
2019-05-30T09:58:56.131Z,2876.00
2019-05-30T09:59:56.144Z,2568.00
2019-05-30T10:00:56.157Z,2280.00
2019-05-30T10:01:56.188Z,2452.00
2019-05-30T10:02:56.192Z,2216.00
2019-05-30T10:03:56.212Z,1960.00
2019-05-30T10:04:56.222Z,2004.00
2019-05-30T10:05:56.237Z,2088.00
2019-05-30T10:06:56.278Z,2344.00
2019-05-30T10:07:56.265Z,2452.00
2019-05-30T10:08:56.293Z,2392.00
2019-05-30T10:09:56.294Z,2260.00
2019-05-30T10:10:56.317Z,2076.00
2019-05-30T10:11:56.325Z,2028.00
2019-05-30T10:12:56.588Z,2112.00
2019-05-30T10:13:56.935Z,2312.00
2019-05-30T10:14:57.135Z,2488.00
2019-05-30T10:15:56.720Z,2532.00
2019-05-30T10:16:58.046Z,2584.00
2019-05-30T10:17:56.964Z,2596.00
2019-05-30T10:18:57.173Z,2572.00
2019-05-30T10:19:57.290Z,2564.00
2019-05-30T10:20:57.125Z,2448.00
2019-05-30T10:21:57.273Z,2608.00
2019-05-30T10:22:57.242Z,2384.00
2019-05-30T10:23:57.593Z,2316.00
2019-05-30T10:24:57.295Z,2260.00
2019-05-30T10:25:57.512Z,2336.00
2019-05-30T10:26:57.367Z,2464.00
2019-05-30T10:27:57.749Z,2592.00
2019-05-30T10:28:57.384Z,2300.00
2019-05-30T10:29:57.560Z,2332.00
2019-05-30T10:30:59.234Z,2436.00
2019-05-30T10:31:56.970Z,2380.00
2019-05-30T10:32:56.636Z,2264.00
2019-05-30T10:33:56.946Z,2236.00
2019-05-30T10:34:56.747Z,2272.00
2019-05-30T10:35:57.042Z,2304.00
2019-05-30T10:36:56.700Z,2600.00
2019-05-30T10:37:56.924Z,3224.00
2019-05-30T10:38:56.813Z,3884.00
2019-05-30T10:39:57.815Z,3688.00
2019-05-30T10:40:56.769Z,3900.00
2019-05-30T10:41:57.239Z,4192.00
2019-05-30T10:42:56.963Z,3684.00
2019-05-30T10:43:57.287Z,3672.00
2019-05-30T10:44:56.836Z,3616.00
2019-05-30T10:45:57.508Z,3548.00
2019-05-30T10:46:56.854Z,3036.00
2019-05-30T10:47:57.540Z,2520.00
2019-05-30T10:48:56.949Z,2648.00
2019-05-30T10:49:57.737Z,2672.00
2019-05-30T10:50:56.934Z,2704.00
2019-05-30T10:51:59.237Z,3068.00
2019-05-30T10:52:57.193Z,3288.00
2019-05-30T10:53:56.964Z,3020.00
2019-05-30T10:54:57.024Z,2820.00
2019-05-30T10:55:57.141Z,2760.00
2019-05-30T10:56:57.935Z,2784.00
2019-05-30T10:57:59.418Z,2892.00
2019-05-30T10:58:57.292Z,2772.00
2019-05-30T10:59:57.298Z,2800.00
2019-05-30T11:00:57.822Z,3032.00
2019-05-30T11:01:57.087Z,2900.00
2019-05-30T11:02:57.216Z,2648.00
2019-05-30T11:03:57.104Z,2232.00
2019-05-30T11:04:57.625Z,2148.00
2019-05-30T11:05:57.230Z,2120.00
2019-05-30T11:07:10.488Z,2312.00
2019-05-30T11:08:03.911Z,2332.00
2019-05-30T11:08:57.180Z,2156.00
2019-05-30T11:09:57.470Z,2112.00
2019-05-30T11:10:57.210Z,1968.00
2019-05-30T11:11:57.228Z,2000.00
2019-05-30T11:13:05.285Z,2104.00
2019-05-30T11:13:57.353Z,2188.00
2019-05-30T11:14:57.869Z,2428.00
2019-05-30T11:15:57.496Z,2464.00
2019-05-30T11:16:57.812Z,2396.00
2019-05-30T11:17:57.747Z,2336.00
2019-05-30T11:18:57.951Z,2076.00
2019-05-30T11:19:57.983Z,1888.00
2019-05-30T11:20:58.594Z,1904.00
2019-05-30T11:21:58.184Z,2016.00
2019-05-30T11:22:58.481Z,2136.00
2019-05-30T11:23:58.378Z,2236.00
2019-05-30T11:24:59.288Z,2224.00
2019-05-30T11:25:58.774Z,2152.00
2019-05-30T11:26:57.453Z,2192.00
2019-05-30T11:27:58.872Z,2312.00
2019-05-30T11:29:57.511Z,2512.00
2019-05-30T11:30:58.839Z,2468.00
2019-05-30T11:31:57.525Z,2492.00
2019-05-30T11:32:57.556Z,2280.00
2019-05-30T11:33:57.574Z,2188.00
2019-05-30T11:34:57.575Z,2296.00
2019-05-30T11:35:57.589Z,2456.00
2019-05-30T11:36:57.599Z,2412.00
2019-05-30T11:37:57.617Z,2236.00
2019-05-30T11:38:57.654Z,2240.00
2019-05-30T11:39:57.667Z,2520.00
2019-05-30T11:40:57.694Z,2504.00
2019-05-30T11:41:57.724Z,2456.00
2019-05-30T11:42:57.693Z,2816.00
2019-05-30T11:43:57.848Z,3172.00
2019-05-30T11:44:57.724Z,2936.00
2019-05-30T11:45:57.836Z,2560.00
2019-05-30T11:46:58.101Z,2440.00
2019-05-30T11:47:58.148Z,2580.00
2019-05-30T11:48:57.922Z,2244.00
2019-05-30T11:49:57.826Z,1948.00
2019-05-30T11:50:57.992Z,1924.00
2019-05-30T11:51:57.964Z,1984.00
2019-05-30T11:52:57.980Z,1952.00
2019-05-30T11:53:58.078Z,1904.00
2019-05-30T11:54:58.140Z,1728.00
2019-05-30T11:55:58.326Z,1712.00
2019-05-30T11:56:58.147Z,1780.00
2019-05-30T11:57:58.429Z,1872.00
2019-05-30T11:58:58.135Z,1960.00
2019-05-30T12:00:58.440Z,1904.00
2019-05-30T12:01:58.518Z,1952.00
2019-05-30T12:02:58.704Z,2052.00
2019-05-30T12:03:58.739Z,1980.00
2019-05-30T12:04:58.624Z,1832.00
2019-05-30T12:05:58.700Z,1704.00
2019-05-30T12:06:58.909Z,1688.00
2019-05-30T12:07:58.925Z,1680.00
2019-05-30T12:08:58.967Z,1732.00
2019-05-30T12:09:58.958Z,1780.00
2019-05-30T12:10:59.364Z,1924.00
2019-05-30T12:11:59.231Z,1920.00
2019-05-30T12:12:59.332Z,1992.00
2019-05-30T12:13:59.385Z,2180.00
2019-05-30T12:14:59.401Z,2336.00
2019-05-30T12:15:59.537Z,2324.00
2019-05-30T12:16:59.396Z,2416.00
2019-05-30T12:17:59.449Z,2416.00
2019-05-30T12:18:59.499Z,2312.00
2019-05-30T12:19:58.295Z,2188.00
2019-05-30T12:20:58.267Z,2244.00
2019-05-30T12:21:58.278Z,2240.00
2019-05-30T12:22:58.300Z,2128.00
2019-05-30T12:23:58.307Z,2156.00
2019-05-30T12:24:58.320Z,2492.00
2019-05-30T12:26:58.360Z,2064.00
2019-05-30T12:27:58.369Z,2152.00
2019-05-30T12:28:58.380Z,2176.00
2019-05-30T12:29:58.494Z,2200.00
2019-05-30T12:31:04.062Z,2152.00
2019-05-30T12:32:00.180Z,1804.00
2019-05-30T12:32:58.852Z,1632.00
2019-05-30T12:33:58.491Z,1544.00
2019-05-30T12:34:58.474Z,1412.00
2019-05-30T12:35:58.606Z,1516.00
2019-05-30T12:36:58.569Z,1820.00
2019-05-30T12:38:02.569Z,1752.00
2019-05-30T12:38:58.537Z,1708.00
2019-05-30T12:39:58.744Z,1760.00
2019-05-30T12:40:58.810Z,1844.00
2019-05-30T12:41:59.032Z,1832.00
2019-05-30T12:42:59.915Z,1888.00
2019-05-30T12:43:59.126Z,1780.00
2019-05-30T12:44:59.064Z,1616.00
2019-05-30T12:45:59.115Z,1592.00
2019-05-30T12:46:59.210Z,1548.00
2019-05-30T12:47:59.239Z,1448.00
2019-05-30T12:48:59.392Z,1336.00
2019-05-30T12:49:59.306Z,1344.00
2019-05-30T12:50:59.371Z,1468.00
2019-05-30T12:51:58.729Z,1684.00
2019-05-30T12:53:00.469Z,1868.00
2019-05-30T12:53:58.773Z,1988.00
2019-05-30T12:54:58.792Z,2080.00
2019-05-30T12:55:58.793Z,2108.00
2019-05-30T12:56:58.803Z,2136.00
2019-05-30T12:57:58.824Z,2388.00
2019-05-30T12:58:58.837Z,2676.00
2019-05-30T13:00:00.787Z,2688.00
2019-05-30T13:00:58.910Z,2500.00
2019-05-30T13:01:59.204Z,2328.00